HAZ6601 RCTP-EGLL
Flight info
| Callsign | HAZ6601 |
|---|---|
| Flight time | N/A |
| Altitude | 29000 |
| Route | PIAN1C PIANO L3 VIOLA R596 SULEM/K0919S0915 R596 BZ A470 EMRID V143 SAPIN A470 DPX A593 DALIM W157 VYK G212 SOTMU B339 POLHO Y520 SERNA/K0883F300 A822 LONKA R497 TODES B228 HMN L870 RANVA/N0480F300 L870 RESMO DCT DEREX DCT DEMIR N872 PAM L980 LOGAN LOGAN2H |
| Aircraft | A346/H-SDE2E3FGHIJ3J4J5M1RWXY/LB1D1 |
Departure
| Time | N/A |
|---|---|
| Airport | Taiwan Taoyuan International Airport (RCTP) |
Arrival
| Time | 2026-05-08 06:14 |
|---|---|
| Airport | London Heathrow Airport (EGLL) |
| Time | Latitude | Longitude | Altitude | Speed | Heading |
|---|---|---|---|---|---|
| 2026-05-08 04:23 | 56.93664 | 17.03186 | 36221 ft | 483 kts | 245° |
| 2026-05-08 04:23 | 56.90869 | 16.91989 | 36210 ft | 483 kts | 245° |
| 2026-05-08 04:24 | 56.88063 | 16.80872 | 36223 ft | 483 kts | 245° |
| 2026-05-08 04:24 | 56.85236 | 16.69784 | 36221 ft | 484 kts | 245° |
| 2026-05-08 04:25 | 56.82427 | 16.58751 | 36182 ft | 484 kts | 245° |
| 2026-05-08 04:25 | 56.79573 | 16.47569 | 36197 ft | 483 kts | 245° |
| 2026-05-08 04:26 | 56.76752 | 16.36555 | 36196 ft | 484 kts | 245° |
| 2026-05-08 04:26 | 56.73929 | 16.25563 | 36216 ft | 483 kts | 244° |
| 2026-05-08 04:27 | 56.71116 | 16.14664 | 36229 ft | 483 kts | 244° |
| 2026-05-08 04:27 | 56.68240 | 16.03590 | 36370 ft | 487 kts | 244° |
| 2026-05-08 04:28 | 56.66810 | 15.98103 | 36773 ft | 483 kts | 244° |
| 2026-05-08 04:28 | 56.65369 | 15.92588 | 37209 ft | 478 kts | 244° |
| 2026-05-08 04:28 | 56.63961 | 15.87215 | 37571 ft | 476 kts | 244° |
| 2026-05-08 04:28 | 56.62522 | 15.81735 | 37905 ft | 474 kts | 244° |
| 2026-05-08 04:29 | 56.61124 | 15.76432 | 38150 ft | 472 kts | 244° |
| 2026-05-08 04:29 | 56.59684 | 15.70976 | 38180 ft | 472 kts | 244° |
| 2026-05-08 04:29 | 56.56869 | 15.60355 | 38189 ft | 471 kts | 244° |
| 2026-05-08 04:30 | 56.54001 | 15.49579 | 38194 ft | 471 kts | 244° |
| 2026-05-08 04:30 | 56.51170 | 15.38992 | 38200 ft | 472 kts | 244° |
| 2026-05-08 04:31 | 56.48286 | 15.28250 | 38193 ft | 472 kts | 243° |
| 2026-05-08 04:31 | 56.45421 | 15.17613 | 38196 ft | 472 kts | 243° |
| 2026-05-08 04:32 | 56.42558 | 15.07043 | 38183 ft | 472 kts | 243° |
| 2026-05-08 04:32 | 56.39655 | 14.96383 | 38194 ft | 472 kts | 243° |
| 2026-05-08 04:33 | 56.36767 | 14.85830 | 38188 ft | 472 kts | 243° |
| 2026-05-08 04:33 | 56.33850 | 14.75225 | 38181 ft | 472 kts | 243° |
| 2026-05-08 04:34 | 56.30934 | 14.64674 | 38189 ft | 472 kts | 243° |
| 2026-05-08 04:34 | 56.28008 | 14.54137 | 38194 ft | 472 kts | 243° |
| 2026-05-08 04:35 | 56.25074 | 14.43617 | 38184 ft | 472 kts | 243° |
| 2026-05-08 04:35 | 56.22121 | 14.33078 | 38191 ft | 473 kts | 243° |
| 2026-05-08 04:36 | 56.19154 | 14.22506 | 38192 ft | 473 kts | 243° |
| 2026-05-08 04:36 | 56.16185 | 14.11977 | 38200 ft | 473 kts | 242° |
| 2026-05-08 04:37 | 56.13232 | 14.01576 | 38193 ft | 473 kts | 242° |
| 2026-05-08 04:37 | 56.10310 | 13.91332 | 38467 ft | 474 kts | 242° |
| 2026-05-08 04:38 | 56.08822 | 13.86130 | 38826 ft | 470 kts | 242° |
| 2026-05-08 04:38 | 56.07355 | 13.81020 | 39164 ft | 466 kts | 243° |
| 2026-05-08 04:38 | 56.06005 | 13.76327 | 39377 ft | 465 kts | 243° |
| 2026-05-08 04:38 | 56.04576 | 13.71366 | 39551 ft | 465 kts | 243° |
| 2026-05-08 04:39 | 56.03162 | 13.66467 | 39706 ft | 465 kts | 243° |
| 2026-05-08 04:39 | 56.01770 | 13.61657 | 39853 ft | 465 kts | 243° |
| 2026-05-08 04:39 | 56.00321 | 13.56658 | 40000 ft | 466 kts | 243° |
| 2026-05-08 04:39 | 55.98876 | 13.51682 | 40133 ft | 466 kts | 243° |
| 2026-05-08 04:40 | 55.96004 | 13.41828 | 40176 ft | 465 kts | 243° |
| 2026-05-08 04:40 | 55.93040 | 13.31696 | 40176 ft | 465 kts | 242° |
| 2026-05-08 04:41 | 55.90060 | 13.21528 | 40175 ft | 465 kts | 242° |
| 2026-05-08 04:41 | 55.87036 | 13.11351 | 40179 ft | 465 kts | 242° |
| 2026-05-08 04:42 | 55.84021 | 13.01257 | 40183 ft | 465 kts | 242° |
| 2026-05-08 04:42 | 55.80991 | 12.91114 | 40172 ft | 466 kts | 242° |
| 2026-05-08 04:43 | 55.77970 | 12.81021 | 40181 ft | 466 kts | 242° |
| 2026-05-08 04:43 | 55.74920 | 12.70868 | 40183 ft | 466 kts | 242° |
| 2026-05-08 04:44 | 55.71884 | 12.60807 | 40182 ft | 466 kts | 242° |
| 2026-05-08 04:44 | 55.68805 | 12.50643 | 40181 ft | 465 kts | 242° |
| 2026-05-08 04:45 | 55.65739 | 12.40567 | 40178 ft | 466 kts | 242° |
| 2026-05-08 04:45 | 55.62707 | 12.30635 | 40182 ft | 466 kts | 241° |
| 2026-05-08 04:46 | 55.59625 | 12.20559 | 40177 ft | 466 kts | 241° |
| 2026-05-08 04:46 | 55.56529 | 12.10499 | 40181 ft | 466 kts | 241° |
| 2026-05-08 04:47 | 55.53445 | 12.00525 | 40178 ft | 466 kts | 241° |
| 2026-05-08 04:47 | 55.50339 | 11.90528 | 40172 ft | 466 kts | 241° |
| 2026-05-08 04:48 | 55.47223 | 11.80544 | 40170 ft | 466 kts | 241° |
| 2026-05-08 04:48 | 55.44103 | 11.70585 | 40171 ft | 466 kts | 241° |
| 2026-05-08 04:49 | 55.40957 | 11.60588 | 40175 ft | 466 kts | 241° |
| 2026-05-08 04:49 | 55.37840 | 11.50726 | 40171 ft | 466 kts | 241° |
| 2026-05-08 04:50 | 55.34691 | 11.40800 | 40165 ft | 466 kts | 241° |
| 2026-05-08 04:50 | 55.31524 | 11.30853 | 40174 ft | 466 kts | 240° |
| 2026-05-08 04:51 | 55.28388 | 11.21018 | 40167 ft | 466 kts | 240° |
| 2026-05-08 04:51 | 55.25227 | 11.11165 | 40162 ft | 466 kts | 240° |
| 2026-05-08 04:52 | 55.22047 | 11.01300 | 40163 ft | 465 kts | 240° |
| 2026-05-08 04:52 | 55.18881 | 10.91528 | 40156 ft | 465 kts | 240° |
| 2026-05-08 04:53 | 55.15679 | 10.81684 | 40152 ft | 466 kts | 240° |
| 2026-05-08 04:53 | 55.12452 | 10.71801 | 40151 ft | 466 kts | 240° |
| 2026-05-08 04:54 | 55.09248 | 10.62026 | 40156 ft | 466 kts | 240° |
| 2026-05-08 04:54 | 55.06027 | 10.52242 | 40153 ft | 466 kts | 240° |
| 2026-05-08 04:55 | 55.02816 | 10.42524 | 40153 ft | 465 kts | 240° |
| 2026-05-08 04:55 | 54.99613 | 10.32874 | 40152 ft | 465 kts | 239° |
| 2026-05-08 04:56 | 54.96415 | 10.23251 | 40158 ft | 466 kts | 239° |
| 2026-05-08 04:56 | 54.93168 | 10.13532 | 40148 ft | 466 kts | 239° |
| 2026-05-08 04:57 | 54.89911 | 10.03835 | 40145 ft | 466 kts | 239° |
| 2026-05-08 04:57 | 54.86618 | 9.94149 | 40141 ft | 466 kts | 239° |
| 2026-05-08 04:58 | 54.83235 | 9.84485 | 40146 ft | 465 kts | 236° |
| 2026-05-08 04:58 | 54.79524 | 9.75335 | 40146 ft | 464 kts | 234° |
| 2026-05-08 04:59 | 54.75796 | 9.66239 | 40151 ft | 464 kts | 234° |
| 2026-05-08 04:59 | 54.72061 | 9.57152 | 40143 ft | 465 kts | 234° |
| 2026-05-08 05:00 | 54.68920 | 9.49538 | 40140 ft | 465 kts | 234° |
| 2026-05-08 05:00 | 54.65282 | 9.40758 | 40140 ft | 465 kts | 234° |
| 2026-05-08 05:01 | 54.61611 | 9.31940 | 40143 ft | 464 kts | 234° |
| 2026-05-08 05:01 | 54.57928 | 9.23101 | 40140 ft | 464 kts | 234° |
| 2026-05-08 05:02 | 54.54185 | 9.14157 | 40141 ft | 464 kts | 234° |
| 2026-05-08 05:02 | 54.50494 | 9.05379 | 40141 ft | 464 kts | 234° |
| 2026-05-08 05:03 | 54.46771 | 8.96557 | 40139 ft | 464 kts | 234° |
| 2026-05-08 05:03 | 54.43053 | 8.87780 | 40139 ft | 464 kts | 234° |
| 2026-05-08 05:04 | 54.39307 | 8.78966 | 40139 ft | 463 kts | 234° |
| 2026-05-08 05:04 | 54.35561 | 8.70182 | 40139 ft | 464 kts | 234° |
| 2026-05-08 05:05 | 54.31807 | 8.61408 | 40138 ft | 464 kts | 234° |
| 2026-05-08 05:05 | 54.28064 | 8.52695 | 40135 ft | 464 kts | 234° |
| 2026-05-08 05:06 | 54.24186 | 8.43873 | 40131 ft | 463 kts | 231° |
| 2026-05-08 05:06 | 54.19942 | 8.35787 | 40133 ft | 463 kts | 225° |
| 2026-05-08 05:07 | 54.15366 | 8.28309 | 40126 ft | 463 kts | 224° |
| 2026-05-08 05:07 | 54.10785 | 8.20868 | 40124 ft | 463 kts | 223° |
| 2026-05-08 05:08 | 54.06158 | 8.13392 | 40125 ft | 464 kts | 223° |
| 2026-05-08 05:08 | 54.01523 | 8.05929 | 40118 ft | 464 kts | 223° |
| 2026-05-08 05:09 | 53.96865 | 7.98455 | 40117 ft | 464 kts | 223° |
| 2026-05-08 05:09 | 53.92252 | 7.91073 | 40118 ft | 463 kts | 223° |
| 2026-05-08 05:10 | 53.85373 | 7.80160 | 40117 ft | 462 kts | 223° |
| 2026-05-08 05:11 | 53.80772 | 7.72897 | 40115 ft | 462 kts | 223° |
| 2026-05-08 05:11 | 53.76150 | 7.65599 | 40113 ft | 463 kts | 224° |
| 2026-05-08 05:12 | 53.71500 | 7.58273 | 40112 ft | 463 kts | 224° |
| 2026-05-08 05:12 | 53.66930 | 7.51094 | 40112 ft | 463 kts | 224° |
| 2026-05-08 05:13 | 53.62312 | 7.43860 | 40113 ft | 464 kts | 224° |
| 2026-05-08 05:13 | 53.57664 | 7.36602 | 40112 ft | 463 kts | 224° |
| 2026-05-08 05:14 | 53.53104 | 7.29484 | 40111 ft | 462 kts | 223° |
| 2026-05-08 05:14 | 53.48537 | 7.22373 | 40112 ft | 462 kts | 223° |
| 2026-05-08 05:15 | 53.43952 | 7.15273 | 40112 ft | 462 kts | 223° |
| 2026-05-08 05:15 | 53.39349 | 7.08176 | 40112 ft | 462 kts | 223° |
| 2026-05-08 05:16 | 53.34745 | 7.01029 | 40109 ft | 462 kts | 225° |
| 2026-05-08 05:16 | 53.30462 | 6.93354 | 40104 ft | 462 kts | 229° |
| 2026-05-08 05:17 | 53.26374 | 6.85564 | 40099 ft | 462 kts | 229° |
| 2026-05-08 05:17 | 53.22201 | 6.77649 | 40100 ft | 462 kts | 229° |
| 2026-05-08 05:18 | 53.18101 | 6.69897 | 40102 ft | 461 kts | 229° |
| 2026-05-08 05:18 | 53.14000 | 6.62054 | 40104 ft | 461 kts | 230° |
| 2026-05-08 05:19 | 53.09978 | 6.54168 | 40108 ft | 462 kts | 230° |
| 2026-05-08 05:19 | 53.05938 | 6.46275 | 40106 ft | 461 kts | 230° |
| 2026-05-08 05:20 | 53.01881 | 6.38389 | 40102 ft | 461 kts | 230° |
| 2026-05-08 05:20 | 52.98313 | 6.31473 | 40100 ft | 461 kts | 229° |
| 2026-05-08 05:21 | 52.94185 | 6.23477 | 40098 ft | 461 kts | 229° |
| 2026-05-08 05:21 | 52.90095 | 6.15596 | 40095 ft | 461 kts | 229° |
| 2026-05-08 05:22 | 52.86240 | 6.08242 | 40094 ft | 461 kts | 229° |
| 2026-05-08 05:22 | 52.82000 | 6.00173 | 40093 ft | 460 kts | 229° |
| 2026-05-08 05:23 | 52.77850 | 5.92267 | 40091 ft | 461 kts | 229° |
| 2026-05-08 05:23 | 52.73663 | 5.84310 | 40090 ft | 461 kts | 229° |
| 2026-05-08 05:24 | 52.69555 | 5.76544 | 40084 ft | 461 kts | 229° |
| 2026-05-08 05:24 | 52.65393 | 5.68703 | 40085 ft | 460 kts | 229° |
| 2026-05-08 05:25 | 52.61233 | 5.60882 | 40077 ft | 461 kts | 229° |
| 2026-05-08 05:25 | 52.57075 | 5.53087 | 40076 ft | 461 kts | 229° |
| 2026-05-08 05:26 | 52.52894 | 5.45269 | 40072 ft | 461 kts | 229° |
| 2026-05-08 05:26 | 52.48715 | 5.37486 | 40074 ft | 460 kts | 229° |
| 2026-05-08 05:27 | 52.44588 | 5.29810 | 40070 ft | 460 kts | 229° |
| 2026-05-08 05:27 | 52.40518 | 5.22248 | 40069 ft | 460 kts | 230° |
| 2026-05-08 05:28 | 52.36741 | 5.14325 | 40065 ft | 459 kts | 236° |
| 2026-05-08 05:28 | 52.33695 | 5.06257 | 40065 ft | 459 kts | 242° |
| 2026-05-08 05:29 | 52.30897 | 4.96528 | 40064 ft | 460 kts | 248° |
| 2026-05-08 05:29 | 52.28871 | 4.87085 | 40064 ft | 461 kts | 251° |
| 2026-05-08 05:30 | 52.26925 | 4.77538 | 40063 ft | 460 kts | 251° |
| 2026-05-08 05:30 | 52.24955 | 4.67965 | 40062 ft | 460 kts | 251° |
| 2026-05-08 05:31 | 52.22948 | 4.58301 | 40060 ft | 461 kts | 251° |
| 2026-05-08 05:31 | 52.20931 | 4.48678 | 40057 ft | 461 kts | 251° |
| 2026-05-08 05:32 | 52.18864 | 4.38869 | 40053 ft | 460 kts | 251° |
| 2026-05-08 05:32 | 52.16796 | 4.29082 | 40050 ft | 460 kts | 250° |
| 2026-05-08 05:33 | 52.14711 | 4.19249 | 40052 ft | 460 kts | 250° |
| 2026-05-08 05:33 | 52.12651 | 4.09603 | 40056 ft | 460 kts | 250° |
| 2026-05-08 05:34 | 52.10542 | 3.99780 | 40057 ft | 459 kts | 250° |
| 2026-05-08 05:34 | 52.08496 | 3.90308 | 40059 ft | 459 kts | 250° |
| 2026-05-08 05:35 | 52.06361 | 3.80464 | 40059 ft | 460 kts | 250° |
| 2026-05-08 05:35 | 52.04380 | 3.71362 | 40057 ft | 460 kts | 250° |
| 2026-05-08 05:36 | 52.02365 | 3.62183 | 40055 ft | 460 kts | 249° |
| 2026-05-08 05:36 | 52.01176 | 3.57348 | 39884 ft | 460 kts | 247° |
| 2026-05-08 05:36 | 51.99905 | 3.52878 | 39664 ft | 457 kts | 244° |
| 2026-05-08 05:36 | 51.98524 | 3.48594 | 39445 ft | 455 kts | 241° |
| 2026-05-08 05:37 | 51.96921 | 3.44184 | 39212 ft | 452 kts | 238° |
| 2026-05-08 05:37 | 51.95199 | 3.39968 | 38981 ft | 449 kts | 236° |
| 2026-05-08 05:37 | 51.93374 | 3.35902 | 38754 ft | 447 kts | 235° |
| 2026-05-08 05:37 | 51.91548 | 3.31843 | 38560 ft | 446 kts | 234° |
| 2026-05-08 05:38 | 51.89794 | 3.27718 | 38366 ft | 446 kts | 238° |
| 2026-05-08 05:38 | 51.88232 | 3.23431 | 38153 ft | 445 kts | 242° |
| 2026-05-08 05:38 | 51.86883 | 3.19000 | 37896 ft | 445 kts | 246° |
| 2026-05-08 05:38 | 51.85948 | 3.15304 | 37614 ft | 446 kts | 249° |
| 2026-05-08 05:39 | 51.85030 | 3.10814 | 37199 ft | 447 kts | 253° |
| 2026-05-08 05:39 | 51.84292 | 3.05953 | 36698 ft | 451 kts | 258° |
| 2026-05-08 05:39 | 51.83789 | 3.00911 | 36151 ft | 455 kts | 262° |
| 2026-05-08 05:39 | 51.83462 | 2.96133 | 35604 ft | 458 kts | 263° |
| 2026-05-08 05:40 | 51.83151 | 2.91239 | 35021 ft | 461 kts | 263° |
| 2026-05-08 05:40 | 51.82835 | 2.86229 | 34261 ft | 463 kts | 263° |
| 2026-05-08 05:40 | 51.82520 | 2.81311 | 33606 ft | 462 kts | 263° |
| 2026-05-08 05:40 | 51.82198 | 2.76375 | 32986 ft | 460 kts | 263° |
| 2026-05-08 05:41 | 51.81875 | 2.71501 | 32385 ft | 459 kts | 263° |
| 2026-05-08 05:41 | 51.81552 | 2.66678 | 31797 ft | 457 kts | 263° |
| 2026-05-08 05:41 | 51.81223 | 2.61865 | 31195 ft | 456 kts | 263° |
| 2026-05-08 05:41 | 51.80880 | 2.56917 | 30572 ft | 456 kts | 263° |
| 2026-05-08 05:42 | 51.80532 | 2.51924 | 29947 ft | 455 kts | 263° |
| 2026-05-08 05:42 | 51.80175 | 2.46831 | 29300 ft | 455 kts | 263° |
| 2026-05-08 05:42 | 51.79821 | 2.41780 | 28647 ft | 455 kts | 263° |
| 2026-05-08 05:42 | 51.79479 | 2.36941 | 28015 ft | 454 kts | 263° |
| 2026-05-08 05:43 | 51.79142 | 2.32216 | 27442 ft | 454 kts | 262° |
| 2026-05-08 05:43 | 51.78773 | 2.27067 | 27047 ft | 452 kts | 262° |
| 2026-05-08 05:43 | 51.78427 | 2.22245 | 26651 ft | 449 kts | 262° |
| 2026-05-08 05:43 | 51.78126 | 2.17531 | 26241 ft | 446 kts | 263° |
| 2026-05-08 05:44 | 51.77843 | 2.12659 | 25825 ft | 443 kts | 263° |
| 2026-05-08 05:44 | 51.77581 | 2.08069 | 25528 ft | 437 kts | 263° |
| 2026-05-08 05:44 | 51.77314 | 2.03440 | 25511 ft | 422 kts | 263° |
| 2026-05-08 05:44 | 51.77053 | 1.98966 | 25495 ft | 408 kts | 263° |
| 2026-05-08 05:45 | 51.76788 | 1.94509 | 25485 ft | 394 kts | 263° |
| 2026-05-08 05:45 | 51.76533 | 1.90250 | 25455 ft | 380 kts | 263° |
| 2026-05-08 05:45 | 51.76279 | 1.86063 | 25416 ft | 367 kts | 263° |
| 2026-05-08 05:45 | 51.76039 | 1.82135 | 25373 ft | 355 kts | 263° |
| 2026-05-08 05:46 | 51.75811 | 1.78391 | 25331 ft | 343 kts | 263° |
| 2026-05-08 05:46 | 51.75581 | 1.74653 | 25288 ft | 330 kts | 263° |
| 2026-05-08 05:46 | 51.75355 | 1.71023 | 25246 ft | 318 kts | 263° |
| 2026-05-08 05:46 | 51.75140 | 1.67594 | 25219 ft | 334 kts | 262° |
| 2026-05-08 05:47 | 51.74900 | 1.63857 | 25169 ft | 355 kts | 263° |
| 2026-05-08 05:47 | 51.74651 | 1.59969 | 24984 ft | 378 kts | 263° |
| 2026-05-08 05:47 | 51.74379 | 1.55709 | 24310 ft | 386 kts | 263° |
| 2026-05-08 05:47 | 51.74109 | 1.51470 | 23896 ft | 382 kts | 263° |
| 2026-05-08 05:48 | 51.73862 | 1.47610 | 23500 ft | 380 kts | 263° |
| 2026-05-08 05:48 | 51.73584 | 1.43286 | 23039 ft | 378 kts | 263° |
| 2026-05-08 05:48 | 51.73312 | 1.39101 | 22460 ft | 372 kts | 263° |
| 2026-05-08 05:48 | 51.73050 | 1.35054 | 21887 ft | 361 kts | 263° |
| 2026-05-08 05:49 | 51.72789 | 1.31060 | 21291 ft | 353 kts | 262° |
| 2026-05-08 05:49 | 51.72537 | 1.27208 | 20684 ft | 346 kts | 262° |
| 2026-05-08 05:49 | 51.72287 | 1.23419 | 20098 ft | 340 kts | 262° |
| 2026-05-08 05:49 | 51.72039 | 1.19683 | 19619 ft | 331 kts | 262° |
| 2026-05-08 05:50 | 51.71795 | 1.16024 | 18963 ft | 328 kts | 262° |
| 2026-05-08 05:50 | 51.71555 | 1.12436 | 18415 ft | 323 kts | 262° |
| 2026-05-08 05:50 | 51.71312 | 1.08855 | 17908 ft | 316 kts | 262° |
| 2026-05-08 05:50 | 51.71075 | 1.05383 | 17659 ft | 312 kts | 262° |
| 2026-05-08 05:51 | 51.70841 | 1.01957 | 17421 ft | 307 kts | 262° |
| 2026-05-08 05:51 | 51.70625 | 0.98817 | 17208 ft | 303 kts | 262° |
| 2026-05-08 05:51 | 51.70385 | 0.95329 | 16822 ft | 298 kts | 262° |
| 2026-05-08 05:51 | 51.70161 | 0.92088 | 16269 ft | 299 kts | 262° |
| 2026-05-08 05:52 | 51.69946 | 0.89003 | 15589 ft | 304 kts | 262° |
| 2026-05-08 05:52 | 51.69707 | 0.85592 | 15039 ft | 304 kts | 262° |
| 2026-05-08 05:52 | 51.69482 | 0.82364 | 14569 ft | 301 kts | 263° |
| 2026-05-08 05:52 | 51.69263 | 0.79242 | 14135 ft | 299 kts | 263° |
| 2026-05-08 05:53 | 51.69032 | 0.75971 | 13622 ft | 296 kts | 263° |
| 2026-05-08 05:53 | 51.68813 | 0.72892 | 13158 ft | 294 kts | 263° |
| 2026-05-08 05:53 | 51.68589 | 0.69750 | 12723 ft | 292 kts | 263° |
| 2026-05-08 05:53 | 51.68362 | 0.66565 | 12261 ft | 289 kts | 263° |
| 2026-05-08 05:54 | 51.68140 | 0.63453 | 11693 ft | 287 kts | 264° |
| 2026-05-08 05:54 | 51.67917 | 0.60351 | 11064 ft | 284 kts | 264° |
| 2026-05-08 05:54 | 51.67695 | 0.57265 | 10501 ft | 280 kts | 264° |
| 2026-05-08 05:54 | 51.67475 | 0.54241 | 10150 ft | 280 kts | 264° |
| 2026-05-08 05:55 | 51.67252 | 0.51158 | 9733 ft | 281 kts | 264° |
| 2026-05-08 05:55 | 51.67043 | 0.48254 | 9385 ft | 279 kts | 264° |
| 2026-05-08 05:55 | 51.66814 | 0.45180 | 9068 ft | 275 kts | 264° |
| 2026-05-08 05:55 | 51.66591 | 0.42166 | 8809 ft | 271 kts | 264° |
| 2026-05-08 05:56 | 51.66373 | 0.39217 | 8562 ft | 267 kts | 264° |
| 2026-05-08 05:56 | 51.66157 | 0.36284 | 8294 ft | 264 kts | 264° |
| 2026-05-08 05:56 | 51.65943 | 0.33380 | 8035 ft | 261 kts | 263° |
| 2026-05-08 05:56 | 51.65728 | 0.30466 | 7763 ft | 259 kts | 263° |
| 2026-05-08 05:57 | 51.65518 | 0.27631 | 7509 ft | 257 kts | 263° |
| 2026-05-08 05:57 | 51.65302 | 0.24754 | 7269 ft | 256 kts | 263° |
| 2026-05-08 05:57 | 51.65091 | 0.21940 | 7031 ft | 253 kts | 263° |
| 2026-05-08 05:57 | 51.64885 | 0.19221 | 6987 ft | 239 kts | 263° |
| 2026-05-08 05:58 | 51.64688 | 0.16606 | 6982 ft | 234 kts | 263° |
| 2026-05-08 05:58 | 51.64503 | 0.13993 | 6994 ft | 232 kts | 265° |
| 2026-05-08 05:58 | 51.64359 | 0.11425 | 6993 ft | 232 kts | 265° |
| 2026-05-08 05:58 | 51.64223 | 0.08849 | 6994 ft | 231 kts | 265° |
| 2026-05-08 05:59 | 51.64139 | 0.07252 | 6995 ft | 231 kts | 265° |
| 2026-05-08 05:59 | 51.64019 | 0.05005 | 6995 ft | 231 kts | 265° |
| 2026-05-08 05:59 | 51.63924 | 0.03237 | 6996 ft | 231 kts | 265° |
| 2026-05-08 05:59 | 51.63799 | 0.00953 | 6997 ft | 231 kts | 264° |
| 2026-05-08 06:00 | 51.63694 | -0.00959 | 6996 ft | 231 kts | 264° |
| 2026-05-08 06:00 | 51.63546 | -0.03625 | 6996 ft | 231 kts | 264° |
| 2026-05-08 06:00 | 51.63401 | -0.06190 | 6997 ft | 231 kts | 264° |
| 2026-05-08 06:00 | 51.63256 | -0.08762 | 6991 ft | 231 kts | 264° |
| 2026-05-08 06:01 | 51.63153 | -0.10566 | 6990 ft | 231 kts | 264° |
| 2026-05-08 06:01 | 51.63029 | -0.12737 | 6991 ft | 231 kts | 264° |
| 2026-05-08 06:01 | 51.62923 | -0.14600 | 6995 ft | 231 kts | 264° |
| 2026-05-08 06:02 | 51.62672 | -0.18959 | 6993 ft | 231 kts | 265° |
| 2026-05-08 06:02 | 51.62525 | -0.21511 | 6994 ft | 231 kts | 265° |
| 2026-05-08 06:02 | 51.62377 | -0.24091 | 6990 ft | 232 kts | 264° |
| 2026-05-08 06:02 | 51.62253 | -0.26265 | 6994 ft | 232 kts | 264° |
| 2026-05-08 06:03 | 51.62127 | -0.28447 | 6995 ft | 232 kts | 264° |
| 2026-05-08 06:03 | 51.61982 | -0.30963 | 6997 ft | 232 kts | 264° |
| 2026-05-08 06:03 | 51.61884 | -0.32629 | 6994 ft | 232 kts | 264° |
| 2026-05-08 06:03 | 51.61720 | -0.35427 | 6989 ft | 232 kts | 264° |
| 2026-05-08 06:04 | 51.61567 | -0.38004 | 6993 ft | 232 kts | 264° |
| 2026-05-08 06:04 | 51.61414 | -0.40582 | 6993 ft | 232 kts | 264° |
| 2026-05-08 06:04 | 51.61274 | -0.42938 | 6992 ft | 231 kts | 264° |
| 2026-05-08 06:04 | 51.61126 | -0.45427 | 6993 ft | 231 kts | 264° |
| 2026-05-08 06:05 | 51.60973 | -0.47974 | 6993 ft | 231 kts | 264° |
| 2026-05-08 06:05 | 51.60818 | -0.50564 | 6989 ft | 231 kts | 263° |
| 2026-05-08 06:05 | 51.60667 | -0.53082 | 6990 ft | 231 kts | 263° |
| 2026-05-08 06:05 | 51.60509 | -0.55674 | 6994 ft | 231 kts | 264° |
| 2026-05-08 06:06 | 51.60354 | -0.58234 | 6993 ft | 231 kts | 263° |
| 2026-05-08 06:06 | 51.60202 | -0.60732 | 6989 ft | 231 kts | 263° |
| 2026-05-08 06:06 | 51.60043 | -0.63334 | 6995 ft | 231 kts | 263° |
| 2026-05-08 06:06 | 51.59885 | -0.65902 | 6990 ft | 234 kts | 262° |
| 2026-05-08 06:07 | 51.59727 | -0.68480 | 6966 ft | 230 kts | 263° |
| 2026-05-08 06:07 | 51.59568 | -0.71049 | 6711 ft | 230 kts | 263° |
| 2026-05-08 06:07 | 51.59413 | -0.73582 | 6504 ft | 227 kts | 262° |
| 2026-05-08 06:07 | 51.59229 | -0.76056 | 6280 ft | 222 kts | 252° |
| 2026-05-08 06:08 | 51.58484 | -0.78139 | 6104 ft | 211 kts | 221° |
| 2026-05-08 06:08 | 51.57369 | -0.79581 | 5908 ft | 203 kts | 200° |
| 2026-05-08 06:08 | 51.56034 | -0.79979 | 5701 ft | 192 kts | 177° |
| 2026-05-08 06:08 | 51.54739 | -0.79843 | 5520 ft | 183 kts | 173° |
| 2026-05-08 06:09 | 51.53467 | -0.79652 | 5084 ft | 184 kts | 173° |
| 2026-05-08 06:09 | 51.52228 | -0.79487 | 4647 ft | 184 kts | 174° |
| 2026-05-08 06:09 | 51.50972 | -0.79321 | 4229 ft | 183 kts | 168° |
| 2026-05-08 06:09 | 51.49864 | -0.78450 | 3796 ft | 180 kts | 136° |
| 2026-05-08 06:10 | 51.48993 | -0.77038 | 3454 ft | 179 kts | 134° |
| 2026-05-08 06:10 | 51.48154 | -0.75562 | 3198 ft | 180 kts | 123° |
| 2026-05-08 06:10 | 51.47729 | -0.73667 | 2879 ft | 179 kts | 100° |
| 2026-05-08 06:10 | 51.47643 | -0.71711 | 2737 ft | 179 kts | 91° |
| 2026-05-08 06:11 | 51.47679 | -0.69744 | 2653 ft | 179 kts | 89° |
| 2026-05-08 06:11 | 51.47720 | -0.67740 | 2463 ft | 178 kts | 90° |
| 2026-05-08 06:11 | 51.47738 | -0.65776 | 2209 ft | 171 kts | 91° |
| 2026-05-08 06:11 | 51.47741 | -0.63940 | 1967 ft | 158 kts | 91° |
| 2026-05-08 06:12 | 51.47740 | -0.62256 | 1745 ft | 147 kts | 92° |
| 2026-05-08 06:12 | 51.47737 | -0.60615 | 1555 ft | 146 kts | 91° |
| 2026-05-08 06:12 | 51.47736 | -0.59360 | 1410 ft | 146 kts | 91° |
| 2026-05-08 06:12 | 51.47736 | -0.58048 | 1259 ft | 146 kts | 91° |
| 2026-05-08 06:13 | 51.47738 | -0.56195 | 1041 ft | 146 kts | 90° |
| 2026-05-08 06:13 | 51.47741 | -0.54563 | 848 ft | 147 kts | 90° |
| 2026-05-08 06:13 | 51.47744 | -0.52930 | 692 ft | 147 kts | 90° |
| 2026-05-08 06:13 | 51.47746 | -0.51288 | 522 ft | 148 kts | 91° |
| 2026-05-08 06:14 | 51.47742 | -0.49660 | 246 ft | 146 kts | 89° |
| 2026-05-08 06:14 | 51.47750 | -0.48033 | 100 ft | 142 kts | 88° |
| 2026-05-08 06:14 | 51.47758 | -0.46686 | 94 ft | 90 kts | 89° |
| 2026-05-08 06:14 | 51.47758 | -0.45992 | 90 ft | 47 kts | 90° |
| 2026-05-08 06:15 | 51.47753 | -0.45533 | 93 ft | 25 kts | 109° |
| 2026-05-08 06:15 | 51.47668 | -0.45469 | 93 ft | 9 kts | 178° |
| 2026-05-08 06:15 | 51.47594 | -0.45467 | 95 ft | 11 kts | 180° |
| 2026-05-08 06:15 | 51.47522 | -0.45512 | 95 ft | 11 kts | 239° |
| 2026-05-08 06:16 | 51.47508 | -0.45647 | 96 ft | 14 kts | 270° |
| 2026-05-08 06:16 | 51.47516 | -0.45820 | 93 ft | 18 kts | 273° |
| 2026-05-08 06:16 | 51.47516 | -0.46035 | 92 ft | 20 kts | 269° |
| 2026-05-08 06:16 | 51.47515 | -0.46218 | 89 ft | 23 kts | 269° |
| 2026-05-08 06:17 | 51.47515 | -0.46629 | 90 ft | 15 kts | 269° |
| 2026-05-08 06:17 | 51.47465 | -0.46747 | 89 ft | 14 kts | 184° |
| 2026-05-08 06:17 | 51.47403 | -0.46703 | 87 ft | 6 kts | 103° |
| 2026-05-08 06:18 | 51.47399 | -0.46636 | 87 ft | 3 kts | 100° |
| 2026-05-08 06:18 | 51.47393 | -0.46606 | 87 ft | 2 kts | 111° |
| 2026-05-08 06:18 | 51.47391 | -0.46601 | 87 ft | 0 kts | 114° |